Terminal Aerodrome Forecast
Issued by NWS

Home | Current Version | Previous Version | Text Only | Print | Product List | Glossary On
Versions: 1 2 3 4 5 6 7 8 9 10 11 12 13 14 15
104
FTUS46 KHNX 150525
TAFVIS
TAF
KVIS 150525Z 1506/1606 VRB02KT 2SM BR SKC
     FM151800 VRB02KT 3SM HZ SKC=

USA.gov is the U.S. government's official web portal to all federal, state and local government web resources and services.